Aasiaat

KL  EN  DA
ASIAQ
Weather Now GREENLAND SURVEY
Updated [WGT/WGST] Temperature [°C] Wind [m/s] Air pressure [hPa] Relative humidity [%] Precipitation [mm]
Present Wind chill Speed Max
21.01 19:00-11,1-20,16,9 ⇑8,3995840,1
21.01 18:00-10,8-19,97,1 ⇑9,5995650,2
21.01 17:00-10,9-19,15,7 ⇗7,8995830,2
21.01 16:00-9,8-16,34,0 ⇒6,4994680,0
21.01 15:00-9,9-18,87,2 ⇘9,4994760,1
21.01 14:00-10,7-20,48,3 ⇑11,5993750,0
21.01 13:00-10,7-19,26,3 ⇑8,7993680,3
21.01 12:00-10,4-17,54,5 ⇑5,6993680,3
21.01 11:00-10,8-18,34,8 ⇑6,3993810,4
21.01 10:00-10,7-18,45,1 ⇑6,7993860,5
21.01 09:00-10,4-18,35,5 ⇑7,3992800,2
21.01 08:00-10,4-18,05,1 ⇗6,6992750,2
21.01 07:00-10,1-17,85,3 ⇗6,9991810,8
21.01 06:00-8,7-16,35,7 ⇒7,1989892,1
21.01 05:00-9,2-19,711,3 ⇗17,3987881,1
21.01 04:00-9,6-21,715,6 ⇗19,3987870,9
21.01 03:00-9,6-21,013,2 ⇗16,8986800,4
21.01 02:00-9,3-19,610,7 ⇑14,5986780,2
21.01 01:00-9,3-19,710,8 ⇗13,3986730,2
21.01 00:00-9,2-19,19,7 ⇗11,9986700,3
20.01 23:00-8,7-18,29,3 ⇗11,6985700,1
20.01 22:00-8,6-18,510,3 ⇗13,3984700,2
20.01 21:00-8,2-17,79,6 ⇗11,4984700,0
20.01 20:00-7,8-16,99,0 ⇗11,4985730,1
20.01 19:00-7,7-16,89,1 ⇗11,1985700,0
Position: (68.7166666666,-52.78333333)

[Back]